Time;durP1;ratioP1;P1;durP2;ratioP2;P2;SDS_P1;SDS_P2;PMS_P1;PMS_P2;Temp;Humidity;BMP_temperature;BMP_pressure;BME280_temperature;BME280_humidity;BME280_pressure;Samples;Min_cycle;Max_cycle;Signal;HPM_P1;HPM_P2
2022/12/13 00:01:31;;;;;;;119.35;37.13;;;;;;;;;;5013112;28;20081;-76
2022/12/13 00:03:58;;;;;;;106.97;37.30;;;;;;;;;;5028581;28;20099;-76
2022/12/13 00:06:25;;;;;;;105.22;34.80;;;;;;;;;;5014512;28;20049;-76
2022/12/13 00:08:51;;;;;;;112.85;35.75;;;;;;;;;;5013727;28;20396;-76
2022/12/13 00:11:17;;;;;;;113.35;36.72;;;;;;;;;;5031266;28;20167;-76
2022/12/13 00:13:45;;;;;;;115.75;37.08;;;;;;;;;;5030997;28;20048;-76
2022/12/13 00:16:12;;;;;;;103.00;34.50;;;;;;;;;;5031013;28;20074;-76
2022/12/13 00:18:39;;;;;;;102.45;34.90;;;;;;;;;;5033159;28;20042;-76
2022/12/13 00:21:09;;;;;;;107.60;34.25;;;;;;;;;;5035050;28;20041;-75
2022/12/13 00:23:36;;;;;;;118.60;37.47;;;;;;;;;;5034592;28;20037;-75
2022/12/13 00:26:03;;;;;;;113.38;36.42;;;;;;;;;;5034049;28;20030;-75
2022/12/13 00:28:29;;;;;;;101.22;34.80;;;;;;;;;;5018172;28;20416;-75
2022/12/13 00:30:59;;;;;;;94.53;33.80;;;;;;;;;;5034672;28;20033;-76
2022/12/13 00:33:25;;;;;;;103.05;35.10;;;;;;;;;;5033936;28;20049;-76
2022/12/13 00:35:53;;;;;;;109.47;33.58;;;;;;;;;;5018166;28;20515;-76
2022/12/13 00:38:19;;;;;;;118.90;35.20;;;;;;;;;;5033912;28;20080;-76
2022/12/13 00:40:45;;;;;;;104.05;35.72;;;;;;;;;;5034451;28;20041;-76
2022/12/13 00:43:11;;;;;;;98.85;33.65;;;;;;;;;;5034332;28;20049;-75
2022/12/13 00:45:37;;;;;;;100.28;33.33;;;;;;;;;;5034095;28;20033;-75
2022/12/13 00:48:04;;;;;;;106.70;35.20;;;;;;;;;;5017544;28;20132;-75
2022/12/13 00:50:31;;;;;;;95.25;33.78;;;;;;;;;;5017654;28;20042;-74
2022/12/13 00:52:58;;;;;;;103.43;35.38;;;;;;;;;;5017786;28;20045;-74
2022/12/13 00:55:24;;;;;;;99.35;34.58;;;;;;;;;;5033889;28;20037;-75
2022/12/13 00:57:51;;;;;;;104.88;35.90;;;;;;;;;;5017268;28;20139;-74
2022/12/13 01:00:17;;;;;;;100.95;33.83;;;;;;;;;;5033846;28;20501;-74
2022/12/13 01:02:43;;;;;;;97.22;33.33;;;;;;;;;;5033512;28;20041;-75
2022/12/13 01:05:10;;;;;;;109.05;36.00;;;;;;;;;;5033517;28;20033;-75
2022/12/13 01:07:36;;;;;;;93.07;33.67;;;;;;;;;;5017172;28;20033;-75
2022/12/13 01:10:03;;;;;;;96.35;33.10;;;;;;;;;;5033565;28;20105;-74
2022/12/13 01:12:29;;;;;;;94.20;33.15;;;;;;;;;;5017013;28;20041;-74
2022/12/13 01:14:56;;;;;;;103.68;33.28;;;;;;;;;;5033402;28;20516;-74
2022/12/13 01:17:23;;;;;;;98.45;34.33;;;;;;;;;;5017315;28;20129;-74
2022/12/13 01:19:49;;;;;;;106.90;33.08;;;;;;;;;;5033739;28;20048;-74
2022/12/13 01:22:15;;;;;;;113.72;33.53;;;;;;;;;;5033655;28;20037;-74
2022/12/13 01:24:41;;;;;;;101.72;34.13;;;;;;;;;;5033257;28;20043;-74
2022/12/13 01:27:07;;;;;;;95.97;32.03;;;;;;;;;;5017231;28;20125;-74
2022/12/13 01:29:33;;;;;;;104.90;33.63;;;;;;;;;;5032809;28;20038;-74
2022/12/13 01:31:59;;;;;;;100.45;33.58;;;;;;;;;;5032948;28;20071;-74
2022/12/13 01:34:28;;;;;;;114.78;35.40;;;;;;;;;;5033225;28;20466;-74
2022/12/13 01:36:55;;;;;;;100.53;33.85;;;;;;;;;;5032801;28;20049;-74
2022/12/13 01:39:21;;;;;;;105.35;34.30;;;;;;;;;;5033111;28;20045;-74
2022/12/13 01:41:48;;;;;;;114.72;35.40;;;;;;;;;;5000197;28;20069;-74
2022/12/13 01:44:33;;;;;;;104.63;35.05;;;;;;;;;;5033292;28;20041;-74
2022/12/13 01:47:00;;;;;;;108.70;32.30;;;;;;;;;;5032806;28;20389;-74
2022/12/13 01:49:26;;;;;;;93.28;33.80;;;;;;;;;;5033241;28;20045;-74
2022/12/13 01:51:53;;;;;;;89.55;31.15;;;;;;;;;;5033182;28;20060;-74
2022/12/13 01:54:22;;;;;;;101.55;34.15;;;;;;;;;;5033151;28;20037;-74
2022/12/13 01:56:52;;;;;;;98.18;33.63;;;;;;;;;;5032833;28;20034;-74
2022/12/13 01:59:19;;;;;;;106.30;32.63;;;;;;;;;;5032697;28;20045;-74
2022/12/13 02:01:46;;;;;;;103.53;32.40;;;;;;;;;;5016796;28;20041;-74
2022/12/13 02:04:12;;;;;;;102.07;33.25;;;;;;;;;;5016258;28;20041;-74
2022/12/13 02:06:40;;;;;;;97.72;33.63;;;;;;;;;;5016194;28;20041;-74
2022/12/13 02:09:07;;;;;;;94.45;33.97;;;;;;;;;;5032929;28;20033;-74
2022/12/13 02:11:35;;;;;;;99.50;33.78;;;;;;;;;;5016225;28;20044;-74
2022/12/13 02:14:01;;;;;;;92.50;31.00;;;;;;;;;;5015479;28;20041;-74
2022/12/13 02:16:38;;;;;;;99.93;34.10;;;;;;;;;;5032116;28;20044;-74
2022/12/13 02:19:04;;;;;;;88.78;31.15;;;;;;;;;;5032398;28;20041;-74
2022/12/13 02:21:40;;;;;;;99.57;32.55;;;;;;;;;;5032238;28;20079;-74
2022/12/13 02:24:09;;;;;;;102.65;32.65;;;;;;;;;;5032124;28;20041;-74
2022/12/13 02:26:45;;;;;;;93.68;31.95;;;;;;;;;;5015663;28;20038;-74
2022/12/13 02:29:49;;;;;;;84.35;33.30;;;-2.30;99.90;;;;;;5016040;28;20042;-74
2022/12/13 02:32:14;;;;;;;;;;;-2.40;99.90;;;;;;5000042;28;20112;-74
2022/12/13 02:35:04;;;;;;;86.65;28.63;;;;;;;;;;5031436;28;20367;-74
2022/12/13 02:37:42;;;;;;;96.07;30.90;;;;;;;;;;5013880;28;20052;-74
2022/12/13 02:40:23;;;;;;;92.82;31.15;;;;;;;;;;5015826;28;20365;-74
2022/12/13 02:42:49;;;;;;;89.50;30.85;;;;;;;;;;5031843;28;20053;-74
2022/12/13 02:45:24;;;;;;;88.70;32.08;;;;;;;;;;5032184;28;20136;-74
2022/12/13 02:47:51;;;;;;;87.85;31.70;;;;;;;;;;5032187;28;20389;-74
2022/12/13 02:50:19;;;;;;;80.18;30.08;;;;;;;;;;5031934;28;20041;-74
2022/12/13 02:52:45;;;;;;;86.45;32.42;;;;;;;;;;5015235;28;20083;-74
2022/12/13 02:55:13;;;;;;;84.85;29.98;;;;;;;;;;5032335;28;20377;-74
2022/12/13 02:57:41;;;;;;;88.25;30.42;;;;;;;;;;5031834;28;20214;-75
2022/12/13 03:00:09;;;;;;;99.57;33.35;;;;;;;;;;5015261;28;20053;-75
2022/12/13 03:02:53;;;;;;;99.13;34.25;;;;;;;;;;5031536;28;20088;-74
2022/12/13 03:08:19;;;;;;;93.25;31.45;;;;;;;;;;5031596;28;20033;-74
2022/12/13 03:10:53;;;;;;;97.78;30.77;;;;;;;;;;5015488;28;20037;-74
2022/12/13 03:13:39;;;;;;;86.43;31.77;;;;;;;;;;5031295;28;20037;-75
2022/12/13 03:16:14;;;;;;;90.50;31.75;;;;;;;;;;5031025;28;20517;-74
2022/12/13 03:18:41;;;;;;;101.60;31.63;;;;;;;;;;5014985;28;20038;-75
2022/12/13 03:21:09;;;;;;;83.25;29.17;;;;;;;;;;5031743;28;20052;-75
2022/12/13 03:23:36;;;;;;;89.05;30.95;;;;;;;;;;5031132;28;20034;-75
2022/12/13 03:26:04;;;;;;;83.47;28.42;;;;;;;;;;5015038;28;20037;-75
2022/12/13 03:28:30;;;;;;;87.30;29.30;;;;;;;;;;5031104;28;20045;-75
2022/12/13 03:30:56;;;;;;;89.18;28.90;;;;;;;;;;5031079;28;20038;-75
2022/12/13 03:33:22;;;;;;;91.82;31.52;;;;;;;;;;5031038;28;20049;-75
2022/12/13 03:35:49;;;;;;;84.53;30.58;;;;;;;;;;5015363;28;20056;-75
2022/12/13 03:38:16;;;;;;;80.25;29.10;;;;;;;;;;5031281;28;20048;-75
2022/12/13 03:40:42;;;;;;;99.88;30.90;;;;;;;;;;5014998;28;20033;-75
2022/12/13 03:43:08;;;;;;;104.07;30.90;;;;;;;;;;5031158;28;20041;-75
2022/12/13 03:45:34;;;;;;;88.65;31.10;;;;;;;;;;5015278;28;20061;-75
2022/12/13 03:48:00;;;;;;;82.68;28.83;;;;;;;;;;5015185;28;20034;-75
2022/12/13 03:50:26;;;;;;;84.10;28.55;;;;;;;;;;5031284;28;20037;-75
2022/12/13 03:52:57;;;;;;;99.30;31.23;;;;;;;;;;5032339;28;20046;-75
2022/12/13 03:55:23;;;;;;;83.93;28.25;;;;;;;;;;5034799;28;20077;-75
2022/12/13 03:57:50;;;;;;;81.75;28.33;;;;;;;;;;5018724;28;20505;-75
2022/12/13 04:00:16;;;;;;;76.40;28.77;;;;;;;;;;5038457;28;20033;-74
2022/12/13 04:02:42;;;;;;;80.78;27.23;;;;;;;;;;5041420;28;20045;-74
2022/12/13 04:05:08;;;;;;;78.80;29.75;;;;;;;;;;5035947;28;20034;-74
2022/12/13 04:07:34;;;;;;;93.43;31.75;;;;;;;;;;5035342;28;20041;-74
2022/12/13 04:10:00;;;;;;;79.32;28.35;;;;;;;;;;5034978;28;20037;-74
2022/12/13 04:15:11;;;;;;;83.18;28.80;;;;;;;;;;5004548;28;20125;-74
2022/12/13 04:17:37;;;;;;;84.05;29.95;;;;;;;;;;5034796;28;20037;-74
2022/12/13 04:20:03;;;;;;;78.30;26.83;;;;;;;;;;5001683;28;20558;-74
2022/12/13 04:22:29;;;;;;;86.80;28.40;;;;;;;;;;5018055;28;20079;-75
2022/12/13 04:24:55;;;;;;;95.18;28.80;;;;;;;;;;5034527;28;20112;-75
2022/12/13 04:27:21;;;;;;;80.00;29.52;;;;;;;;;;5034175;28;20044;-75
2022/12/13 04:29:47;;;;;;;96.40;29.55;;;;;;;;;;5034549;28;20041;-75
2022/12/13 04:32:13;;;;;;;89.72;28.95;;;;;;;;;;5034450;28;20370;-75
2022/12/13 04:34:39;;;;;;;78.88;26.88;;;;;;;;;;5018316;28;20167;-74
2022/12/13 04:37:05;;;;;;;84.47;29.10;;;;;;;;;;5017666;28;20099;-75
2022/12/13 04:39:31;;;;;;;81.90;28.63;;;;;;;;;;5017894;28;20129;-75
2022/12/13 04:41:57;;;;;;;88.70;28.45;;;;;;;;;;5034000;28;20064;-75
2022/12/13 04:44:23;;;;;;;83.63;28.75;;;;;;;;;;5034060;28;20038;-75
2022/12/13 04:46:49;;;;;;;81.30;28.38;;;;;;;;;;5017938;28;20397;-75
2022/12/13 04:49:16;;;;;;;77.30;28.73;;;;;;;;;;5017956;28;20429;-75
2022/12/13 04:51:42;;;;;;;89.20;29.83;;;;;;;;;;5033927;28;20558;-75
2022/12/13 04:54:08;;;;;;;86.05;28.42;;;;;;;;;;5033776;28;20048;-75
2022/12/13 04:56:34;;;;;;;89.15;29.10;;;;;;;;;;5017372;28;20397;-75
2022/12/13 04:59:00;;;;;;;67.18;25.98;;;;;;;;;;5034197;28;20118;-74
2022/12/13 05:01:26;;;;;;;74.22;28.40;;;;;;;;;;5033694;28;20037;-75
2022/12/13 05:03:52;;;;;;;73.38;28.20;;;;;;;;;;5000453;28;20045;-75
2022/12/13 05:06:18;;;;;;;81.97;28.33;;;;;;;;;;5017073;28;20120;-75
2022/12/13 05:08:44;;;;;;;79.10;28.20;;;;;;;;;;5017449;28;20057;-75
2022/12/13 05:11:11;;;;;;;78.50;27.92;;;;;;;;;;5033471;28;20497;-75
2022/12/13 05:13:37;;;;;;;79.93;29.98;;;;;;;;;;5017105;28;20383;-75
2022/12/13 05:16:05;;;;;;;87.00;31.00;;;;;;;;;;5033834;28;20131;-75
2022/12/13 05:18:31;;;;;;;90.13;32.08;;;;;;;;;;5030931;28;20512;-75
2022/12/13 05:21:01;;;;;;;89.95;29.45;;;;;;;;;;5017302;28;20124;-75
2022/12/13 05:23:27;;;;;;;91.07;30.35;;;;;;;;;;5033064;28;20038;-74
2022/12/13 05:25:53;;;;;;;78.72;29.45;;;;;;;;;;5016891;28;20052;-75
2022/12/13 05:28:19;;;;;;;77.80;29.25;;;;;;;;;;5016548;28;20484;-75
2022/12/13 05:30:45;;;;;;;87.28;30.45;;;;;;;;;;5017351;28;20385;-75
2022/12/13 05:33:12;;;;;;;99.30;31.73;;;;;;;;;;5035809;28;20404;-74
2022/12/13 05:35:38;;;;;;;89.97;31.27;;;;;;;;;;5020414;28;20091;-75
2022/12/13 05:38:05;;;;;;;97.80;31.33;;;;;;;;;;5036204;28;20044;-75
2022/12/13 05:40:32;;;;;;;75.10;28.85;;;;;;;;;;5036470;28;20094;-75
2022/12/13 05:42:58;;;;;;;88.40;30.98;;;;;;;;;;5019736;28;20037;-74
2022/12/13 05:45:24;;;;;;;84.40;30.25;;;;;;;;;;5019924;28;20037;-74
2022/12/13 05:47:50;;;;;;;88.25;32.25;;;;;;;;;;5036577;28;20369;-75
2022/12/13 05:50:17;;;;;;;95.82;32.15;;;;;;;;;;5036855;28;20443;-75
2022/12/13 05:52:43;;;;;;;86.50;32.13;;;;;;;;;;5035874;28;20471;-75
2022/12/13 05:55:10;;;;;;;81.70;30.40;;;;;;;;;;5003684;28;20040;-75
2022/12/13 05:57:36;;;;;;;92.38;30.90;;;;;;;;;;5003328;28;20044;-75
2022/12/13 06:00:03;;;;;;;94.65;30.88;;;;;;;;;;5036186;28;20037;-75
2022/12/13 06:02:29;;;;;;;97.15;33.03;;;;;;;;;;5019527;28;20105;-76
2022/12/13 06:04:56;;;;;;;92.05;33.85;;;;;;;;;;5020100;28;20044;-75
2022/12/13 06:07:22;;;;;;;95.03;33.40;;;;;;;;;;5035735;28;20041;-75
2022/12/13 06:09:48;;;;;;;97.55;33.80;;;;;;;;;;5019483;28;20500;-75
2022/12/13 06:12:15;;;;;;;93.20;31.45;;;;;;;;;;5036361;28;20190;-75
2022/12/13 06:14:41;;;;;;;87.00;32.85;;;;;;;;;;5019126;28;20043;-75
2022/12/13 06:17:07;;;;;;;82.45;28.90;;;;;;;;;;5019322;28;20059;-75
2022/12/13 06:19:33;;;;;;;85.18;32.20;;;;;;;;;;5035520;28;20079;-74
2022/12/13 06:21:59;;;;;;;93.47;32.08;;;;;;;;;;5019573;28;20037;-75
2022/12/13 06:24:26;;;;;;;99.88;34.35;;;;;;;;;;5019172;28;20037;-75
2022/12/13 06:26:53;;;;;;;97.35;32.97;;;;;;;;;;5018896;28;20037;-75
2022/12/13 06:29:20;;;;;;;98.95;34.65;;;;;;;;;;5018944;28;20123;-75
2022/12/13 06:31:46;;;;;;;98.63;33.85;;;;;;;;;;5035946;28;20063;-76
2022/12/13 06:34:13;;;;;;;99.28;31.88;;;;;;;;;;5015660;28;20054;-76
2022/12/13 06:36:39;;;;;;;85.85;31.50;;;;;;;;;;5031897;28;20045;-76
2022/12/13 06:39:06;;;;;;;96.75;31.95;;;;;;;;;;5015527;28;20037;-76
2022/12/13 06:41:32;;;;;;;89.72;31.90;;;;;;;;;;5032035;28;20041;-76
2022/12/13 06:43:59;;;;;;;92.97;32.50;;;;;;;;;;5031939;28;20490;-77
2022/12/13 06:46:25;;;;;;;95.13;30.55;;;;;;;;;;5015682;28;20460;-77
2022/12/13 06:48:52;;;;;;;107.88;31.88;;;;;;;;;;5015867;28;20485;-77
2022/12/13 06:51:18;;;;;;;84.95;28.73;;;;;;;;;;5015459;28;20045;-76
2022/12/13 06:53:44;;;;;;;88.65;31.10;;;;;;;;;;4999592;28;20132;-77
2022/12/13 06:56:12;;;;;;;86.65;30.23;;;-2.80;99.90;;;;;;5031735;28;20041;-77
2022/12/13 06:58:38;;;;;;;76.85;29.98;;;;;;;;;;5015336;28;20049;-76
2022/12/13 07:01:06;;;;;;;88.95;31.10;;;;;;;;;;5031901;28;20049;-76
2022/12/13 07:03:32;;;;;;;92.88;30.13;;;;;;;;;;5031667;28;20038;-76
2022/12/13 07:05:59;;;;;;;82.18;29.50;;;;;;;;;;5031552;28;20065;-76
2022/12/13 07:08:25;;;;;;;81.78;31.25;;;;;;;;;;5032059;28;20041;-75
2022/12/13 07:10:55;;;;;;;75.50;29.15;;;;;;;;;;5014986;28;20041;-76
2022/12/13 07:13:21;;;;;;;83.32;30.10;;;;;;;;;;5031870;28;20515;-77
2022/12/13 07:15:48;;;;;;;85.90;29.55;;;;;;;;;;5031648;28;20038;-76
2022/12/13 07:18:14;;;;;;;81.95;31.90;;;;;;;;;;5015217;28;20041;-76
2022/12/13 07:20:40;;;;;;;91.43;31.38;;;;;;;;;;5014972;28;20057;-77
2022/12/13 07:23:06;;;;;;;93.25;30.67;;;;;;;;;;5015131;28;20500;-76
2022/12/13 07:25:32;;;;;;;81.95;31.35;;;;;;;;;;5014955;28;20041;-75
2022/12/13 07:28:03;;;;;;;86.85;30.90;;;;;;;;;;5032940;28;20116;-75
2022/12/13 07:30:30;;;;;;;86.88;31.42;;;;;;;;;;5026273;28;20477;-76
2022/12/13 07:32:57;;;;;;;89.90;32.88;;;;;;;;;;5035206;28;20041;-76
2022/12/13 07:35:23;;;;;;;80.15;30.58;;;;;;;;;;5017114;28;20058;-76
2022/12/13 07:37:49;;;;;;;80.53;30.63;;;;;;;;;;5018502;28;20535;-76
2022/12/13 07:40:15;;;;;;;99.28;32.60;;;;;;;;;;5034722;28;20084;-76
2022/12/13 07:42:41;;;;;;;88.00;33.47;;;;;;;;;;5035089;28;20091;-76
2022/12/13 07:45:07;;;;;;;96.10;32.42;;;;;;;;;;5035135;28;20049;-76
2022/12/13 07:47:33;;;;;;;93.90;31.80;;;;;;;;;;5032074;28;20033;-76
2022/12/13 07:49:59;;;;;;;87.55;31.90;;;;;;;;;;5031610;28;20033;-76
2022/12/13 07:52:26;;;;;;;87.15;31.85;;;;;;;;;;5027005;28;20029;-76
2022/12/13 07:54:52;;;;;;;89.20;33.83;;;;;;;;;;5030153;28;20056;-76
2022/12/13 07:57:18;;;;;;;93.00;31.58;;;;;;;;;;5013395;28;20030;-76
2022/12/13 07:59:44;;;;;;;95.15;33.38;;;;;;;;;;5007723;28;20038;-76
2022/12/13 08:02:12;;;;;;;77.15;30.63;;;;;;;;;;5011263;28;20025;-77
2022/12/13 08:04:38;;;;;;;85.63;32.50;;;;;;;;;;5022127;28;20038;-77
2022/12/13 08:07:08;;;;;;;88.88;31.25;;;;;;;;;;5034265;28;20033;-77
2022/12/13 08:09:34;;;;;;;85.90;31.80;;;;;;;;;;5002355;28;20042;-77
2022/12/13 08:12:00;;;;;;;85.25;32.75;;;;;;;;;;5018218;28;20067;-76
2022/12/13 08:14:27;;;;;;;88.70;33.22;;;;;;;;;;5018491;28;20128;-78
2022/12/13 08:16:53;;;;;;;99.53;33.03;;;;;;;;;;5017872;28;20045;-77
2022/12/13 08:19:19;;;;;;;87.00;32.78;;;;;;;;;;5036935;28;20056;-77
2022/12/13 08:21:45;;;;;;;91.60;32.58;;;;;;;;;;5034618;28;20048;-77
2022/12/13 08:24:11;;;;;;;99.35;33.00;;;;;;;;;;5034647;28;20045;-77
2022/12/13 08:26:37;;;;;;;79.85;29.92;;;;;;;;;;5018313;28;20049;-76
2022/12/13 08:29:04;;;;;;;96.68;33.85;;;;;;;;;;5033553;28;20502;-76
2022/12/13 08:31:30;;;;;;;103.88;32.50;;;;;;;;;;5019126;28;20192;-77
2022/12/13 08:33:56;;;;;;;92.28;34.33;;;;;;;;;;5035904;28;20081;-76
2022/12/13 08:36:23;;;;;;;97.18;34.63;;;;;;;;;;5018152;28;20505;-76
2022/12/13 08:38:52;;;;;;;94.22;33.58;;;;;;;;;;5035166;28;20053;-77
2022/12/13 08:41:19;;;;;;;80.65;33.42;;;;;;;;;;5034567;28;20045;-77
2022/12/13 08:43:45;;;;;;;92.47;33.42;;;;;;;;;;5017737;28;20045;-77
2022/12/13 08:46:11;;;;;;;90.68;34.55;;;;;;;;;;5033845;28;20080;-76
2022/12/13 08:48:37;;;;;;;93.75;33.35;;;;;;;;;;5017930;28;20433;-76
2022/12/13 08:51:07;;;;;;;100.82;34.17;;;;;;;;;;5018356;28;20144;-76
2022/12/13 08:53:34;;;;;;;95.60;33.70;;;;;;;;;;5034169;28;20095;-76
2022/12/13 08:56:04;;;;;;;93.68;33.42;;;-2.20;99.90;;;;;;5017722;28;20045;-76
2022/12/13 08:58:30;;;;;;;82.85;32.58;;;;;;;;;;5019676;28;20049;-77
2022/12/13 09:00:57;;;;;;;93.63;33.95;;;;;;;;;;5009765;28;20037;-76
2022/12/13 09:03:23;;;;;;;108.47;35.83;;;;;;;;;;5034670;28;20493;-79
2022/12/13 09:05:49;;;;;;;95.40;34.00;;;;;;;;;;5034447;28;20116;-76
2022/12/13 09:08:15;;;;;;;106.63;35.03;;;;;;;;;;5018371;28;20045;-77
2022/12/13 09:10:41;;;;;;;95.85;34.22;;;;;;;;;;5039089;28;20092;-76
2022/12/13 09:13:07;;;;;;;88.40;34.58;;;;;;;;;;5025165;28;20042;-76
2022/12/13 09:15:33;;;;;;;101.13;33.25;;;;;;;;;;5003465;28;20037;-77
2022/12/13 09:17:59;;;;;;;98.15;34.97;;;;;;;;;;5017761;28;20373;-77
2022/12/13 09:20:25;;;;;;;100.22;34.80;;;;;;;;;;4984910;28;20095;-76
2022/12/13 09:22:53;;;;;;;97.82;34.03;;;;;;;;;;5000893;28;20480;-77
2022/12/13 09:25:19;;;;;;;115.80;36.13;;;;;;;;;;5001323;28;20042;-77
2022/12/13 09:27:45;;;;;;;101.07;35.55;;;;;;;;;;5016927;28;20519;-77
2022/12/13 09:30:14;;;;;;;111.40;37.03;;;;;;;;;;4984832;28;20064;-77
2022/12/13 09:32:42;;;;;;;112.40;34.65;;;;;;;;;;5016912;28;20034;-77
2022/12/13 09:35:08;;;;;;;102.63;35.95;;;;;;;;;;5033395;28;20060;-77
2022/12/13 09:37:35;;;;;;;61.78;19.50;;;;;;;;;;5036682;28;20500;-76
2022/12/13 09:40:01;;;;;;;114.80;35.45;;;;;;;;;;5019950;28;20112;-76
2022/12/13 09:42:29;;;;;;;100.93;35.25;;;;;;;;;;5036218;28;20040;-77
2022/12/13 09:45:04;;;;;;;100.65;34.72;;;-1.00;99.90;;;;;;5035814;28;20041;-77
2022/12/13 09:47:35;;;;;;;102.60;35.90;;;;;;;;;;5019326;28;20045;-76
2022/12/13 09:50:04;;;;;;;102.18;35.95;;;;;;;;;;5035883;28;20507;-76
2022/12/13 09:52:36;;;;;;;103.47;36.10;;;;;;;;;;5036296;28;20056;-76
2022/12/13 09:55:02;;;;;;;96.80;34.15;;;;;;;;;;5018676;28;20041;-77
2022/12/13 09:57:31;;;;;;;106.60;34.88;;;;;;;;;;5036637;28;20489;-77
2022/12/13 09:59:58;;;;;;;91.80;35.75;;;;;;;;;;5036480;28;20393;-77
2022/12/13 10:02:30;;;;;;;99.90;36.53;;;-0.90;99.90;;;;;;5035922;28;20045;-77
2022/12/13 10:05:36;;;;;;;104.70;36.20;;;-0.80;99.90;;;;;;5036151;28;20036;-77
2022/12/13 10:08:05;;;;;;;96.35;37.22;;;;;;;;;;5035359;28;20145;-77
2022/12/13 10:10:31;;;;;;;99.60;38.97;;;;;;;;;;5036033;28;20037;-78
2022/12/13 10:13:18;;;;;;;95.78;37.22;;;;;;;;;;5035744;28;20033;-78
2022/12/13 10:15:47;;;;;;;100.50;37.38;;;;;;;;;;5035969;28;20049;-78
2022/12/13 10:18:16;;;;;;;98.00;35.90;;;;;;;;;;5036040;28;20041;-78
2022/12/13 10:20:43;;;;;;;94.90;36.90;;;;;;;;;;5035148;28;20033;-78
2022/12/13 10:23:10;;;;;;;90.78;34.72;;;;;;;;;;5032357;28;20528;-78
2022/12/13 10:25:55;;;;;;;90.70;35.45;;;;;;;;;;5018053;28;20063;-77
2022/12/13 10:28:27;;;;;;;102.30;36.20;;;;;;;;;;5033736;28;20087;-77
2022/12/13 10:30:53;;;;;;;99.82;36.33;;;;;;;;;;5032063;28;20064;-75
2022/12/13 10:33:28;;;;;;;87.95;35.10;;;;;;;;;;5033787;28;20099;-76
2022/12/13 10:36:02;;;;;;;100.25;36.38;;;;;;;;;;5034540;28;20115;-75
2022/12/13 10:38:30;;;;;;;94.72;36.00;;;-0.40;99.90;;;;;;5033177;28;20044;-76
2022/12/13 10:40:56;;;;;;;86.53;34.22;;;;;;;;;;5019505;28;20029;-77
2022/12/13 10:43:25;;;;;;;100.85;37.17;;;;;;;;;;5035689;28;20132;-77
2022/12/13 10:45:57;;;;;;;100.80;38.40;;;;;;;;;;5021382;28;20045;-76
2022/12/13 10:48:36;;;;;;;94.20;35.92;;;;;;;;;;5055290;28;20041;-77
2022/12/13 10:51:04;;;;;;;96.82;35.00;;;;;;;;;;5038718;28;20086;-77
2022/12/13 10:53:33;;;;;;;95.88;36.58;;;-0.20;99.90;;;;;;5055441;28;20428;-76
2022/12/13 10:56:01;;;;;;;95.07;35.20;;;;;;;;;;5055163;28;20032;-77
2022/12/13 10:58:38;;;;;;;92.97;35.10;;;;;;;;;;5055254;28;20059;-75
2022/12/13 11:01:09;;;;;;;98.50;37.50;;;;;;;;;;5055259;28;20036;-76
2022/12/13 11:03:35;;;;;;;100.18;35.55;;;;;;;;;;5054146;28;20045;-75
2022/12/13 11:06:15;;;;;;;94.35;35.65;;;;;;;;;;5054867;28;20495;-75
2022/12/13 11:08:41;;;;;;;87.07;34.95;;;;;;;;;;5050016;28;20044;-75
2022/12/13 11:11:08;;;;;;;92.35;35.30;;;;;;;;;;5038876;28;20103;-75
2022/12/13 11:13:35;;;;;;;90.00;34.42;;;;;;;;;;5038606;28;20075;-74
2022/12/13 11:16:02;;;;;;;83.28;33.25;;;;;;;;;;5055046;28;20106;-76
2022/12/13 11:18:33;;;;;;;95.72;36.40;;;;;;;;;;5038916;28;20076;-75
2022/12/13 11:21:01;;;;;;;102.47;36.25;;;;;;;;;;5056930;28;20052;-75
2022/12/13 11:23:28;;;;;;;91.55;35.30;;;;;;;;;;5075751;28;20061;-74
2022/12/13 11:25:56;;;;;;;86.47;34.08;;;;;;;;;;5055482;28;20041;-75
2022/12/13 11:28:29;;;;;;;93.75;35.92;;;;;;;;;;5055309;28;20040;-75
2022/12/13 11:31:04;;;;;;;90.07;34.20;;;;;;;;;;5054952;28;20044;-75
2022/12/13 11:33:31;;;;;;;89.22;34.33;;;;;;;;;;5038468;28;20529;-75
2022/12/13 11:36:12;;;;;;;95.15;36.20;;;;;;;;;;5072847;28;20048;-76
2022/12/13 11:38:58;;;;;;;88.07;36.47;;;;;;;;;;5050504;28;20064;-75
2022/12/13 11:41:43;;;;;;;97.97;35.67;;;;;;;;;;5035158;28;20087;-75
2022/12/13 11:44:13;;;;;;;89.93;35.17;;;;;;;;;;5034674;28;20041;-75
2022/12/13 11:46:44;;;;;;;88.63;34.92;;;;;;;;;;5035062;28;20075;-75
2022/12/13 11:49:29;;;;;;;87.00;32.47;;;;;;;;;;5034913;28;20041;-75
2022/12/13 11:51:58;;;;;;;86.40;35.13;;;;;;;;;;5034828;28;20044;-75
2022/12/13 11:54:36;;;;;;;90.80;33.80;;;;;;;;;;5018310;28;20044;-75
2022/12/13 11:57:11;;;;;;;80.55;33.15;;;1.70;99.90;;;;;;5034931;28;20067;-75
2022/12/13 11:59:45;;;;;;;89.28;33.65;;;1.70;99.90;;;;;;5018070;28;20068;-75
2022/12/13 12:02:32;;;;;;;86.65;32.67;;;;;;;;;;5043342;28;20504;-75
2022/12/13 12:05:04;;;;;;;86.45;31.42;;;1.60;99.90;;;;;;5037256;28;20047;-75
2022/12/13 12:07:33;;;;;;;87.47;31.73;;;;;;;;;;5037639;28;20116;-75
2022/12/13 12:10:19;;;;;;;79.20;29.83;;;;;;;;;;5038676;28;20284;-75
2022/12/13 12:12:48;;;;;;;84.20;31.42;;;;;;;;;;5017599;28;20059;-75
2022/12/13 12:15:20;;;;;;;80.47;31.33;;;;;;;;;;5037565;28;20048;-75
2022/12/13 12:17:46;;;;;;;81.00;33.17;;;;;;;;;;5036996;28;20041;-75
2022/12/13 12:20:22;;;;;;;74.07;30.63;;;1.70;99.90;;;;;;5035057;28;20033;-75
2022/12/13 12:22:59;;;;;;;78.90;31.67;;;;;;;;;;5054623;28;20040;-75
2022/12/13 12:25:25;;;;;;;71.18;28.48;;;;;;;;;;5036204;28;20099;-75
2022/12/13 12:28:03;;;;;;;74.68;28.55;;;;;;;;;;5069684;28;20508;-75
2022/12/13 12:30:39;;;;;;;73.93;28.52;;;;;;;;;;5037739;28;20029;-75
2022/12/13 12:33:08;;;;;;;74.30;30.33;;;;;;;;;;5071149;28;20500;-75
2022/12/13 12:35:51;;;;;;;77.60;28.95;;;;;;;;;;5055680;28;20106;-75
2022/12/13 12:38:32;;;;;;;71.65;29.48;;;;;;;;;;5070848;28;20382;-75
2022/12/13 12:40:58;;;;;;;66.32;28.98;;;;;;;;;;5038004;28;20439;-75
2022/12/13 12:43:24;;;;;;;67.80;27.67;;;;;;;;;;5054492;28;20103;-74
2022/12/13 12:45:59;;;;;;;67.07;26.60;;;;;;;;;;5037910;28;20392;-75
2022/12/13 12:48:31;;;;;;;64.10;27.88;;;;;;;;;;5037541;28;20087;-75
2022/12/13 12:51:17;;;;;;;64.43;27.80;;;2.00;99.90;;;;;;5070881;28;20040;-75
2022/12/13 12:53:43;;;;;;;70.90;27.58;;;;;;;;;;5037439;28;20051;-74
2022/12/13 12:56:29;;;;;;;68.80;28.63;;;2.00;99.90;;;;;;5037523;28;20093;-74
2022/12/13 12:59:18;;;;;;;66.47;29.15;;;2.20;99.90;;;;;;5037460;28;20404;-74
2022/12/13 13:01:53;;;;;;;64.00;27.55;;;;;;;;;;5019685;28;20124;-75
2022/12/13 13:04:21;;;;;;;72.85;28.77;;;;;;;;;;5018269;28;20033;-75
2022/12/13 13:06:50;;;;;;;70.88;28.25;;;;;;;;;;5036392;28;20108;-74
2022/12/13 13:09:20;;;;;;;73.47;27.70;;;;;;;;;;5035483;28;20166;-75
2022/12/13 13:11:47;;;;;;;67.47;26.33;;;;;;;;;;5037354;28;20036;-74
2022/12/13 13:14:33;;;;;;;65.70;25.77;;;;;;;;;;5027223;28;20040;-75
2022/12/13 13:17:38;;;;;;;62.03;26.90;;;2.70;99.90;;;;;;5034535;28;20519;-75
2022/12/13 13:20:19;;;;;;;68.13;26.02;;;;;;;;;;5016872;28;20057;-75
2022/12/13 13:22:46;;;;;;;75.82;27.27;;;;;;;;;;5034953;28;20115;-75
2022/12/13 13:25:34;;;;;;;63.35;26.38;;;;;;;;;;5034259;28;20476;-75
2022/12/13 13:28:05;;;;;;;61.33;25.48;;;;;;;;;;5020278;28;20036;-74
2022/12/13 13:30:31;;;;;;;58.78;26.50;;;;;;;;;;5033552;28;20111;-75
2022/12/13 13:32:58;;;;;;;70.15;27.77;;;;;;;;;;5035303;28;20033;-75
2022/12/13 13:35:35;;;;;;;66.47;27.30;;;;;;;;;;5035032;28;20489;-74
2022/12/13 13:38:24;;;;;;;68.00;27.60;;;2.70;99.90;;;;;;5016714;28;20052;-74
2022/12/13 13:40:51;;;;;;;66.82;28.52;;;;;;;;;;5009900;28;20076;-74
2022/12/13 13:43:27;;;;;;;70.80;27.23;;;3.20;99.90;;;;;;5035117;28;20404;-75
2022/12/13 13:46:10;;;;;;;65.35;27.15;;;;;;;;;;5035040;28;20037;-74
2022/12/13 13:48:54;;;;;;;63.33;27.33;;;;;;;;;;5034074;28;20083;-74
2022/12/13 13:51:58;;;;;;;65.15;27.38;;;3.20;99.90;;;;;;5018298;28;20139;-74
2022/12/13 13:54:50;;;;;;;65.85;27.73;;;;;;;;;;5016652;28;20041;-74
2022/12/13 13:57:31;;;;;;;61.83;26.85;;;;;;;;;;4991979;28;20186;-74
2022/12/13 14:00:08;;;;;;;67.45;28.85;;;;;;;;;;5019865;28;20111;-74
2022/12/13 14:02:46;;;;;;;69.80;28.92;;;;;;;;;;5036359;28;20373;-74
2022/12/13 14:05:31;;;;;;;72.32;30.60;;;;;;;;;;5036033;28;20095;-74
2022/12/13 14:08:00;;;;;;;80.32;29.25;;;;;;;;;;5019782;28;20431;-74
2022/12/13 14:10:44;;;;;;;63.83;27.15;;;;;;;;;;5045448;28;20064;-74
2022/12/13 14:13:42;;;;;;;67.47;26.67;;;2.90;99.90;;;;;;5036310;28;20345;-74
2022/12/13 14:16:35;;;;;;;66.15;25.90;;;;;;;;;;5021825;28;20115;-74
2022/12/13 14:19:20;;;;;;;62.42;27.38;;;;;;;;;;5034491;28;20033;-74
2022/12/13 14:21:46;;;;;;;62.35;27.17;;;;;;;;;;5029942;28;20044;-74
2022/12/13 14:24:40;;;;;;;66.10;27.60;;;2.40;99.90;;;;;;5041841;28;20049;-74
2022/12/13 14:27:26;;;;;;;70.63;28.17;;;;;;;;;;5041824;28;20037;-74